createdAt,value
2023-02-19T00:01:52.606Z,3.70
2023-02-19T00:04:22.097Z,4.40
2023-02-19T00:06:56.729Z,4.30
2023-02-19T00:09:25.623Z,4.30
2023-02-19T00:11:53.758Z,3.60
2023-02-19T00:14:21.924Z,4.00
2023-02-19T00:16:49.709Z,3.70
2023-02-19T00:19:18.837Z,4.40
2023-02-19T00:21:47.011Z,3.40
2023-02-19T00:24:15.108Z,3.40
2023-02-19T00:27:03.729Z,4.30
2023-02-19T00:29:31.439Z,3.70
2023-02-19T00:32:00.181Z,4.00
2023-02-19T00:34:28.065Z,4.10
2023-02-19T00:37:02.658Z,4.60
2023-02-19T00:39:34.341Z,4.30
2023-02-19T00:42:02.317Z,4.30
2023-02-19T00:44:30.115Z,4.60
2023-02-19T00:46:57.818Z,4.20
2023-02-19T00:49:25.506Z,3.50
2023-02-19T00:51:53.597Z,4.90
2023-02-19T00:54:22.712Z,4.70
2023-02-19T00:56:52.231Z,5.20
2023-02-19T00:59:20.069Z,4.80
2023-02-19T01:01:49.713Z,4.60
2023-02-19T01:04:18.282Z,5.50
2023-02-19T01:06:46.322Z,4.50
2023-02-19T01:09:13.989Z,5.30
2023-02-19T01:11:42.192Z,4.50
2023-02-19T01:14:10.700Z,5.00
2023-02-19T01:16:38.689Z,4.70
2023-02-19T01:19:12.722Z,4.80
2023-02-19T01:21:41.013Z,4.80
2023-02-19T01:24:10.099Z,5.40
2023-02-19T01:26:37.946Z,5.00
2023-02-19T01:29:05.850Z,4.80
2023-02-19T01:31:34.415Z,5.30
2023-02-19T01:34:03.838Z,4.60
2023-02-19T01:36:33.147Z,5.10
2023-02-19T01:39:07.691Z,4.70
2023-02-19T01:41:36.855Z,5.60
2023-02-19T01:44:27.960Z,4.20
2023-02-19T01:46:58.888Z,5.40
2023-02-19T01:49:31.917Z,3.30
2023-02-19T01:52:19.884Z,4.90
2023-02-19T01:54:49.145Z,3.90
2023-02-19T01:57:19.002Z,4.20
2023-02-19T01:59:50.199Z,4.00
2023-02-19T02:02:18.021Z,4.00
2023-02-19T02:04:46.143Z,3.30
2023-02-19T02:07:35.311Z,4.20
2023-02-19T02:10:22.047Z,4.10
2023-02-19T02:12:51.107Z,4.10
2023-02-19T02:15:19.485Z,4.20
2023-02-19T02:17:53.254Z,3.80
2023-02-19T02:20:32.302Z,3.70
2023-02-19T02:23:07.756Z,4.20
2023-02-19T02:25:53.919Z,4.60
2023-02-19T02:28:37.483Z,4.20
2023-02-19T02:31:11.318Z,3.80
2023-02-19T02:33:47.906Z,4.20
2023-02-19T02:36:20.925Z,4.00
2023-02-19T02:38:50.122Z,4.20
2023-02-19T02:41:28.021Z,4.20
2023-02-19T02:44:02.262Z,4.30
2023-02-19T02:46:36.732Z,4.60
2023-02-19T02:49:08.854Z,4.00
2023-02-19T02:51:39.924Z,3.90
2023-02-19T02:54:28.640Z,4.20
2023-02-19T02:56:58.013Z,4.70
2023-02-19T02:59:28.984Z,4.10
2023-02-19T03:02:23.214Z,3.10
2023-02-19T03:07:53.511Z,5.10
2023-02-19T03:10:31.039Z,2.80
2023-02-19T03:13:18.177Z,3.40
2023-02-19T03:16:12.290Z,4.10
2023-02-19T03:19:00.414Z,3.80
2023-02-19T03:21:28.683Z,4.80
2023-02-19T03:24:15.774Z,5.30
2023-02-19T03:26:49.645Z,4.20
2023-02-19T03:29:23.678Z,5.20
2023-02-19T03:31:55.324Z,4.40
2023-02-19T03:34:26.413Z,4.20
2023-02-19T03:37:02.173Z,6.00
2023-02-19T03:39:30.641Z,5.40
2023-02-19T03:42:04.190Z,4.70
2023-02-19T03:44:42.511Z,5.40
2023-02-19T03:47:24.422Z,6.00
2023-02-19T03:49:59.867Z,4.30
2023-02-19T03:52:47.159Z,5.00
2023-02-19T03:55:33.567Z,4.90
2023-02-19T03:58:01.955Z,4.60
2023-02-19T04:00:32.442Z,4.10
2023-02-19T04:03:06.190Z,5.70
2023-02-19T04:05:37.341Z,5.70
2023-02-19T04:08:09.093Z,4.70
2023-02-19T04:10:41.716Z,5.50
2023-02-19T04:13:16.664Z,5.40
2023-02-19T04:15:45.255Z,5.10
2023-02-19T04:18:15.385Z,4.70
2023-02-19T04:20:44.655Z,5.20
2023-02-19T04:23:13.304Z,4.90
2023-02-19T04:25:46.194Z,4.50
2023-02-19T04:28:16.725Z,4.20
2023-02-19T04:30:44.708Z,5.50
2023-02-19T04:33:12.474Z,4.80
2023-02-19T04:35:40.200Z,4.30
2023-02-19T04:38:08.133Z,4.50
2023-02-19T04:40:35.829Z,4.70
2023-02-19T04:43:03.523Z,4.60
2023-02-19T04:45:31.228Z,4.90
2023-02-19T04:47:59.024Z,4.50
2023-02-19T04:50:26.797Z,4.50
2023-02-19T04:52:54.421Z,4.60
2023-02-19T04:55:22.219Z,4.60
2023-02-19T04:57:53.879Z,4.60
2023-02-19T05:00:21.737Z,5.00
2023-02-19T05:02:49.444Z,4.60
2023-02-19T05:07:50.970Z,4.70
2023-02-19T05:10:18.845Z,5.80
2023-02-19T05:12:46.621Z,4.10
2023-02-19T05:15:14.369Z,4.60
2023-02-19T05:17:42.093Z,3.90
2023-02-19T05:20:09.983Z,4.50
2023-02-19T05:22:37.803Z,4.00
2023-02-19T05:25:05.559Z,4.20
2023-02-19T05:27:33.423Z,5.00
2023-02-19T05:30:01.176Z,4.20
2023-02-19T05:32:34.761Z,3.60
2023-02-19T05:35:02.424Z,4.60
2023-02-19T05:37:30.114Z,3.50
2023-02-19T05:39:57.810Z,5.00
2023-02-19T05:42:25.705Z,3.40
2023-02-19T05:44:53.491Z,3.20
2023-02-19T05:47:21.140Z,4.20
2023-02-19T05:49:48.909Z,4.70
2023-02-19T05:52:16.871Z,4.00
2023-02-19T05:54:44.592Z,4.00
2023-02-19T05:57:12.262Z,4.10
2023-02-19T05:59:40.099Z,5.30
2023-02-19T06:02:09.145Z,9.00
2023-02-19T06:04:36.852Z,8.10
2023-02-19T06:07:04.548Z,4.60
2023-02-19T06:09:32.562Z,5.20
2023-02-19T06:12:00.298Z,4.00
2023-02-19T06:14:28.010Z,4.80
2023-02-19T06:16:55.716Z,5.80
2023-02-19T06:19:23.472Z,4.90
2023-02-19T06:21:51.302Z,5.10
2023-02-19T06:24:18.962Z,5.80
2023-02-19T06:26:46.634Z,4.80
2023-02-19T06:29:14.284Z,5.60
2023-02-19T06:34:16.164Z,5.50
2023-02-19T06:36:44.646Z,5.40
2023-02-19T06:39:12.600Z,5.10
2023-02-19T06:41:40.301Z,5.60
2023-02-19T06:44:08.068Z,7.20
2023-02-19T06:46:36.223Z,5.70
2023-02-19T06:49:05.047Z,5.90
2023-02-19T06:51:33.280Z,5.20
2023-02-19T06:54:02.451Z,6.20
2023-02-19T06:56:58.959Z,5.30
2023-02-19T06:59:27.044Z,4.70
2023-02-19T07:01:54.959Z,4.60
2023-02-19T07:04:22.813Z,4.90
2023-02-19T07:06:50.739Z,4.30
2023-02-19T07:09:18.763Z,5.20
2023-02-19T07:11:46.708Z,4.10
2023-02-19T07:14:15.598Z,5.30
2023-02-19T07:16:43.997Z,5.00
2023-02-19T07:19:12.117Z,4.80
2023-02-19T07:21:39.865Z,4.60
2023-02-19T07:24:08.289Z,5.80
2023-02-19T07:26:36.290Z,5.80
2023-02-19T07:29:04.106Z,5.40
2023-02-19T07:31:32.365Z,5.70
2023-02-19T07:34:00.711Z,4.80
2023-02-19T07:36:28.456Z,4.90
2023-02-19T07:38:56.938Z,7.10
2023-02-19T07:41:24.974Z,6.70
2023-02-19T07:43:57.791Z,6.20
2023-02-19T07:46:26.692Z,6.60
2023-02-19T07:48:54.590Z,8.80
2023-02-19T07:51:22.365Z,8.20
2023-02-19T07:53:50.886Z,4.90
2023-02-19T07:56:19.387Z,6.70
2023-02-19T07:58:47.674Z,6.80
2023-02-19T08:01:15.970Z,5.70
2023-02-19T08:03:44.344Z,5.10
2023-02-19T08:06:18.470Z,5.60
2023-02-19T08:08:46.444Z,7.80
2023-02-19T08:11:33.265Z,5.00
2023-02-19T08:14:01.158Z,6.00
2023-02-19T08:16:41.955Z,6.40
2023-02-19T08:19:10.463Z,8.50
2023-02-19T08:21:38.155Z,7.80
2023-02-19T08:24:06.318Z,7.50
2023-02-19T08:26:34.869Z,7.20
2023-02-19T08:29:04.449Z,5.90
2023-02-19T08:31:34.166Z,6.80
2023-02-19T08:34:02.655Z,6.40
2023-02-19T08:36:31.336Z,5.80
2023-02-19T08:38:59.235Z,5.30
2023-02-19T08:41:29.480Z,4.40
2023-02-19T08:43:57.499Z,6.20
2023-02-19T08:46:25.454Z,6.00
2023-02-19T08:48:53.382Z,4.40
2023-02-19T08:51:21.629Z,6.50
2023-02-19T08:54:16.434Z,5.30
2023-02-19T08:56:51.025Z,4.80
2023-02-19T08:59:26.024Z,4.20
2023-02-19T09:02:01.101Z,6.80
2023-02-19T09:04:39.705Z,7.10
2023-02-19T09:07:09.618Z,6.10
2023-02-19T09:09:38.171Z,7.40
2023-02-19T09:12:07.161Z,5.50
2023-02-19T09:14:55.535Z,5.10
2023-02-19T09:17:24.958Z,5.90
2023-02-19T09:20:14.951Z,5.90
2023-02-19T09:23:04.075Z,5.90
2023-02-19T09:25:32.072Z,5.80
2023-02-19T09:28:02.680Z,3.80
2023-02-19T09:30:31.371Z,3.30
2023-02-19T09:33:00.171Z,4.40
2023-02-19T09:35:30.345Z,4.50
2023-02-19T09:37:59.290Z,4.80
2023-02-19T09:40:27.334Z,3.20
2023-02-19T09:43:15.241Z,2.40
2023-02-19T09:45:42.971Z,5.20
2023-02-19T09:48:12.367Z,4.00
2023-02-19T09:50:43.802Z,4.40
2023-02-19T09:53:14.650Z,4.00
2023-02-19T09:55:43.518Z,5.70
2023-02-19T09:58:19.169Z,4.50
2023-02-19T10:00:48.867Z,4.10
2023-02-19T10:03:39.199Z,3.60
2023-02-19T10:06:20.450Z,3.50
2023-02-19T10:09:00.116Z,4.00
2023-02-19T10:11:28.203Z,3.20
2023-02-19T10:14:03.480Z,4.40
2023-02-19T10:16:31.367Z,3.00
2023-02-19T10:18:59.208Z,4.30
2023-02-19T10:21:28.075Z,3.70
2023-02-19T10:24:00.320Z,4.60
2023-02-19T10:26:28.272Z,2.90
2023-02-19T10:28:56.042Z,5.60
2023-02-19T10:31:24.912Z,2.50
2023-02-19T10:33:54.235Z,4.10
2023-02-19T10:36:32.150Z,3.90
2023-02-19T10:39:01.647Z,4.10
2023-02-19T10:41:29.867Z,4.10
2023-02-19T10:43:57.631Z,3.90
2023-02-19T10:46:27.919Z,3.60
2023-02-19T10:48:58.258Z,3.20
2023-02-19T10:51:39.470Z,2.60
2023-02-19T10:54:15.629Z,3.20
2023-02-19T10:56:44.036Z,2.50
2023-02-19T10:59:22.945Z,3.00
2023-02-19T11:02:15.634Z,3.40
2023-02-19T11:05:21.776Z,2.70
2023-02-19T11:07:50.052Z,2.90
2023-02-19T11:10:21.135Z,2.60
2023-02-19T11:12:50.536Z,2.30
2023-02-19T11:15:24.070Z,2.60
2023-02-19T11:17:56.753Z,2.20
2023-02-19T11:20:24.989Z,2.10
2023-02-19T11:22:57.261Z,2.60
2023-02-19T11:25:26.009Z,2.80
2023-02-19T11:28:07.509Z,2.50
2023-02-19T11:30:38.391Z,2.80
2023-02-19T11:33:19.932Z,3.10
2023-02-19T11:35:48.511Z,2.80
2023-02-19T11:38:17.548Z,2.30
2023-02-19T11:41:14.151Z,2.60
2023-02-19T11:43:53.881Z,2.30
2023-02-19T11:46:41.949Z,2.10
2023-02-19T11:49:12.833Z,2.60
2023-02-19T11:51:51.474Z,2.50
2023-02-19T11:54:29.641Z,2.40
2023-02-19T11:57:23.770Z,2.50
2023-02-19T12:00:01.582Z,2.30
2023-02-19T12:02:38.627Z,2.60
2023-02-19T12:05:23.011Z,3.10
2023-02-19T12:08:00.306Z,2.40
2023-02-19T12:10:46.853Z,1.60
2023-02-19T12:13:20.833Z,1.80
2023-02-19T12:18:56.232Z,2.10
2023-02-19T12:21:39.105Z,1.70
2023-02-19T12:24:16.853Z,6.40
2023-02-19T12:27:03.021Z,2.00
2023-02-19T12:29:34.558Z,4.20
2023-02-19T12:32:14.839Z,1.20
2023-02-19T12:35:01.929Z,3.10
2023-02-19T12:37:40.871Z,2.50
2023-02-19T12:40:27.041Z,1.80
2023-02-19T12:43:11.931Z,1.80
2023-02-19T12:46:00.388Z,1.80
2023-02-19T12:48:36.034Z,2.70
2023-02-19T12:51:21.008Z,3.30
2023-02-19T12:53:53.593Z,3.70
2023-02-19T12:56:25.043Z,4.00
2023-02-19T12:59:02.296Z,1.70
2023-02-19T13:01:35.637Z,1.70
2023-02-19T13:04:06.362Z,1.10
2023-02-19T13:06:41.406Z,1.90
2023-02-19T13:09:15.239Z,1.60
2023-02-19T13:11:46.893Z,2.30
2023-02-19T13:14:26.950Z,1.60
2023-02-19T13:16:58.766Z,2.70
2023-02-19T13:19:26.606Z,1.80
2023-02-19T13:22:17.775Z,2.30
2023-02-19T13:24:46.676Z,1.50
2023-02-19T13:27:33.663Z,1.80
2023-02-19T13:30:11.079Z,1.90
2023-02-19T13:32:55.515Z,2.20
2023-02-19T13:37:51.573Z,1.90
2023-02-19T13:40:22.884Z,2.50
2023-02-19T13:42:55.228Z,1.80
2023-02-19T13:45:34.285Z,2.40
2023-02-19T13:48:13.139Z,3.00
2023-02-19T13:50:41.345Z,2.90
2023-02-19T13:53:28.282Z,3.70
2023-02-19T13:55:56.147Z,2.30
2023-02-19T13:58:33.333Z,3.20
2023-02-19T14:01:02.877Z,3.10
2023-02-19T14:03:30.948Z,2.80
2023-02-19T14:06:00.794Z,2.40
2023-02-19T14:08:47.977Z,3.00
2023-02-19T14:11:35.744Z,3.30
2023-02-19T14:14:06.966Z,5.00
2023-02-19T14:16:41.188Z,4.50
2023-02-19T14:19:15.695Z,3.10
2023-02-19T14:21:43.998Z,3.40
2023-02-19T14:24:13.110Z,3.10
2023-02-19T14:26:41.569Z,4.10
2023-02-19T14:29:10.665Z,5.50
2023-02-19T14:31:38.941Z,3.20
2023-02-19T14:34:14.540Z,2.00
2023-02-19T14:37:00.937Z,2.10
2023-02-19T14:39:40.422Z,2.40
2023-02-19T14:42:14.873Z,2.30
2023-02-19T14:44:51.506Z,3.40
2023-02-19T14:47:21.464Z,3.10
2023-02-19T14:49:51.556Z,3.20
2023-02-19T14:52:25.469Z,2.80
2023-02-19T14:54:55.659Z,3.30
2023-02-19T14:57:26.342Z,3.80
2023-02-19T14:59:56.104Z,4.50
2023-02-19T15:02:27.405Z,3.30
2023-02-19T15:04:55.921Z,3.10
2023-02-19T15:07:25.169Z,3.30
2023-02-19T15:09:54.569Z,3.10
2023-02-19T15:12:26.689Z,2.40
2023-02-19T15:14:56.529Z,2.20
2023-02-19T15:17:29.139Z,2.90
2023-02-19T15:20:00.765Z,3.10
2023-02-19T15:22:31.994Z,2.70
2023-02-19T15:25:04.341Z,2.60
2023-02-19T15:27:34.429Z,2.70
2023-02-19T15:30:02.300Z,2.70
2023-02-19T15:32:30.180Z,2.30
2023-02-19T15:34:58.928Z,2.20
2023-02-19T15:37:28.380Z,3.10
2023-02-19T15:39:57.519Z,3.50
2023-02-19T15:42:30.300Z,3.10
2023-02-19T15:45:00.998Z,4.10
2023-02-19T15:47:34.463Z,2.60
2023-02-19T15:50:02.543Z,2.40
2023-02-19T15:52:34.048Z,2.60
2023-02-19T15:55:18.947Z,4.20
2023-02-19T15:57:49.961Z,3.40
2023-02-19T16:00:21.259Z,3.60
2023-02-19T16:02:49.233Z,2.80
2023-02-19T16:05:25.795Z,2.40
2023-02-19T16:08:26.258Z,4.20
2023-02-19T16:11:02.396Z,5.00
2023-02-19T16:13:31.694Z,2.90
2023-02-19T16:16:18.844Z,4.00
2023-02-19T16:18:47.823Z,4.50
2023-02-19T16:21:17.030Z,3.80
2023-02-19T16:23:46.369Z,3.80
2023-02-19T16:26:14.282Z,4.80
2023-02-19T16:28:42.340Z,7.30
2023-02-19T16:31:12.499Z,4.50
2023-02-19T16:33:42.717Z,3.70
2023-02-19T16:36:26.530Z,3.90
2023-02-19T16:39:04.367Z,4.40
2023-02-19T16:41:32.585Z,3.50
2023-02-19T16:44:24.142Z,3.50
2023-02-19T16:46:53.382Z,5.10
2023-02-19T16:49:21.866Z,4.30
2023-02-19T16:51:49.922Z,3.20
2023-02-19T16:54:17.659Z,2.20
2023-02-19T16:56:45.331Z,3.40
2023-02-19T16:59:12.949Z,2.90
2023-02-19T17:01:40.846Z,2.90
2023-02-19T17:04:11.629Z,3.30
2023-02-19T17:06:46.961Z,4.70
2023-02-19T17:09:14.747Z,3.30
2023-02-19T17:11:42.442Z,5.40
2023-02-19T17:14:10.417Z,3.40
2023-02-19T17:16:45.112Z,3.00
2023-02-19T17:19:13.783Z,3.30
2023-02-19T17:21:41.508Z,2.40
2023-02-19T17:24:09.428Z,2.60
2023-02-19T17:26:37.614Z,2.40
2023-02-19T17:29:06.611Z,2.70
2023-02-19T17:31:34.467Z,2.10
2023-02-19T17:34:02.516Z,2.30
2023-02-19T17:36:31.900Z,2.90
2023-02-19T17:39:00.105Z,3.10
2023-02-19T17:41:28.589Z,3.20
2023-02-19T17:43:56.546Z,5.40
2023-02-19T17:46:26.881Z,6.80
2023-02-19T17:48:55.083Z,8.50
2023-02-19T17:51:22.849Z,6.80
2023-02-19T17:53:50.728Z,7.20
2023-02-19T17:56:19.885Z,6.70
2023-02-19T17:58:48.888Z,8.00
2023-02-19T18:01:17.018Z,6.30
2023-02-19T18:03:52.013Z,6.00
2023-02-19T18:06:20.494Z,6.60
2023-02-19T18:08:52.265Z,6.20
2023-02-19T18:11:22.057Z,5.80
2023-02-19T18:13:50.762Z,6.30
2023-02-19T18:16:18.621Z,5.30
2023-02-19T18:18:46.620Z,5.90
2023-02-19T18:21:14.894Z,4.20
2023-02-19T18:23:42.821Z,5.40
2023-02-19T18:26:11.339Z,4.80
2023-02-19T18:28:59.290Z,5.00
2023-02-19T18:31:27.154Z,3.80
2023-02-19T18:34:22.231Z,5.00
2023-02-19T18:36:50.122Z,3.70
2023-02-19T18:39:18.049Z,3.80
2023-02-19T18:41:50.049Z,3.20
2023-02-19T18:44:22.400Z,3.40
2023-02-19T18:46:53.832Z,4.00
2023-02-19T18:49:21.670Z,3.60
2023-02-19T18:51:49.367Z,4.00
2023-02-19T18:54:17.112Z,4.50
2023-02-19T18:56:45.621Z,3.60
2023-02-19T18:59:13.649Z,5.30
2023-02-19T19:01:41.544Z,5.10
2023-02-19T19:04:16.033Z,5.20
2023-02-19T19:06:43.908Z,6.10
2023-02-19T19:09:11.664Z,4.80
2023-02-19T19:11:41.460Z,4.60
2023-02-19T19:14:10.512Z,4.60
2023-02-19T19:16:38.366Z,4.70
2023-02-19T19:19:06.346Z,3.40
2023-02-19T19:21:34.589Z,4.10
2023-02-19T19:24:06.730Z,3.50
2023-02-19T19:26:38.751Z,3.80
2023-02-19T19:29:07.934Z,4.30
2023-02-19T19:31:36.797Z,6.40
2023-02-19T19:34:04.623Z,5.20
2023-02-19T19:36:32.439Z,4.90
2023-02-19T19:39:00.228Z,4.20
2023-02-19T19:41:28.063Z,4.60
2023-02-19T19:44:16.149Z,4.60
2023-02-19T19:46:50.768Z,5.60
2023-02-19T19:49:25.641Z,5.40
2023-02-19T19:52:01.338Z,5.10
2023-02-19T19:54:33.562Z,3.90
2023-02-19T19:57:21.400Z,6.20
2023-02-19T19:59:55.042Z,5.70
2023-02-19T20:02:24.047Z,7.10
2023-02-19T20:04:58.912Z,6.90
2023-02-19T20:07:28.398Z,7.30
2023-02-19T20:09:56.309Z,4.80
2023-02-19T20:12:24.325Z,5.60
2023-02-19T20:14:52.403Z,5.20
2023-02-19T20:17:20.344Z,6.00
2023-02-19T20:19:48.524Z,4.90
2023-02-19T20:22:16.715Z,5.50
2023-02-19T20:24:51.279Z,4.80
2023-02-19T20:27:19.577Z,5.80
2023-02-19T20:29:47.418Z,5.00
2023-02-19T20:32:18.753Z,4.20
2023-02-19T20:34:47.662Z,4.40
2023-02-19T20:37:15.788Z,5.20
2023-02-19T20:39:43.958Z,4.20
2023-02-19T20:42:16.626Z,4.50
2023-02-19T20:44:44.831Z,3.90
2023-02-19T20:47:12.566Z,6.10
2023-02-19T20:49:44.043Z,4.90
2023-02-19T20:52:13.546Z,4.90
2023-02-19T20:54:42.912Z,4.90
2023-02-19T20:57:12.463Z,4.90
2023-02-19T20:59:40.903Z,5.20
2023-02-19T21:02:12.765Z,5.10
2023-02-19T21:04:40.765Z,5.40
2023-02-19T21:07:15.770Z,4.90
2023-02-19T21:09:43.520Z,4.10
2023-02-19T21:12:12.542Z,5.10
2023-02-19T21:14:40.737Z,4.90
2023-02-19T21:17:11.055Z,5.20
2023-02-19T21:19:38.913Z,4.90
2023-02-19T21:22:07.112Z,4.40
2023-02-19T21:24:37.473Z,3.20
2023-02-19T21:27:05.204Z,5.40
2023-02-19T21:29:32.966Z,3.90
2023-02-19T21:32:01.727Z,4.60
2023-02-19T21:34:30.375Z,4.50
2023-02-19T21:36:58.134Z,5.70
2023-02-19T21:39:31.223Z,3.90
2023-02-19T21:42:00.287Z,3.20
2023-02-19T21:44:28.066Z,4.00
2023-02-19T21:46:56.291Z,4.20
2023-02-19T21:49:24.730Z,3.30
2023-02-19T21:51:53.380Z,4.20
2023-02-19T21:54:24.809Z,4.60
2023-02-19T21:56:53.496Z,3.60
2023-02-19T21:59:21.808Z,4.50
2023-02-19T22:01:51.093Z,4.20
2023-02-19T22:04:20.263Z,4.90
2023-02-19T22:06:47.991Z,4.00
2023-02-19T22:09:15.909Z,3.50
2023-02-19T22:11:43.673Z,5.20
2023-02-19T22:14:11.329Z,4.80
2023-02-19T22:16:39.511Z,4.30
2023-02-19T22:19:07.194Z,3.70
2023-02-19T22:21:35.528Z,4.60
2023-02-19T22:24:03.463Z,5.60
2023-02-19T22:26:32.394Z,4.60
2023-02-19T22:29:02.796Z,4.40
2023-02-19T22:31:32.518Z,5.70
2023-02-19T22:34:00.332Z,4.90
2023-02-19T22:36:31.237Z,5.30
2023-02-19T22:38:59.619Z,4.10
2023-02-19T22:41:27.332Z,5.10
2023-02-19T22:43:55.733Z,4.30
2023-02-19T22:46:24.689Z,5.70
2023-02-19T22:48:52.461Z,4.40
2023-02-19T22:51:21.640Z,6.00
2023-02-19T22:53:54.532Z,4.80
2023-02-19T22:56:29.123Z,6.00
2023-02-19T22:58:57.416Z,3.80
2023-02-19T23:01:25.640Z,3.90
2023-02-19T23:03:58.016Z,4.00
2023-02-19T23:06:28.976Z,4.10
2023-02-19T23:08:58.407Z,4.10
2023-02-19T23:11:27.556Z,4.60
2023-02-19T23:13:59.423Z,4.70
2023-02-19T23:16:27.786Z,2.90
2023-02-19T23:18:55.645Z,3.50
2023-02-19T23:21:23.285Z,2.80
2023-02-19T23:23:51.055Z,4.00
2023-02-19T23:26:20.642Z,4.30
2023-02-19T23:28:48.921Z,3.50
2023-02-19T23:31:17.040Z,4.00
2023-02-19T23:33:45.247Z,3.00
2023-02-19T23:36:13.853Z,3.00
2023-02-19T23:38:45.410Z,3.40
2023-02-19T23:45:31.029Z,3.90
2023-02-19T23:48:04.986Z,3.60
2023-02-19T23:50:37.065Z,3.70
2023-02-19T23:53:04.821Z,3.80
2023-02-19T23:55:32.774Z,2.80
2023-02-19T23:58:00.743Z,3.80
